createdAt,value
2023-05-10T00:00:10.278Z,47.35
2023-05-10T00:02:43.745Z,47.83
2023-05-10T00:05:12.397Z,48.51
2023-05-10T00:07:40.692Z,47.72
2023-05-10T00:10:09.660Z,47.96
2023-05-10T00:12:38.030Z,49.19
2023-05-10T00:15:07.586Z,49.07
2023-05-10T00:17:35.968Z,50.24
2023-05-10T00:20:06.990Z,46.39
2023-05-10T00:22:36.461Z,44.99
2023-05-10T00:25:05.053Z,45.01
2023-05-10T00:27:33.580Z,45.03
2023-05-10T00:30:02.007Z,45.30
2023-05-10T00:32:36.408Z,46.62
2023-05-10T00:35:09.795Z,46.59
2023-05-10T00:37:38.510Z,46.56
2023-05-10T00:40:08.757Z,46.22
2023-05-10T00:42:37.165Z,47.36
2023-05-10T00:45:06.762Z,47.02
2023-05-10T00:47:35.355Z,47.86
2023-05-10T00:50:07.087Z,48.17
2023-05-10T00:52:35.914Z,48.27
2023-05-10T00:55:04.407Z,48.32
2023-05-10T00:57:33.914Z,48.26
2023-05-10T01:00:02.321Z,48.49
2023-05-10T01:02:35.948Z,49.34
2023-05-10T01:05:09.908Z,49.21
2023-05-10T01:07:38.368Z,49.35
2023-05-10T01:10:07.701Z,49.62
2023-05-10T01:12:37.325Z,49.37
2023-05-10T01:15:07.348Z,49.10
2023-05-10T01:17:36.100Z,49.09
2023-05-10T01:20:09.307Z,47.95
2023-05-10T01:22:56.879Z,48.07
2023-05-10T01:25:46.561Z,48.44
2023-05-10T01:28:33.808Z,48.86
2023-05-10T01:31:25.732Z,49.29
2023-05-10T01:33:59.970Z,49.75
2023-05-10T01:36:33.343Z,49.50
2023-05-10T01:39:08.446Z,49.35
2023-05-10T01:41:43.754Z,49.41
2023-05-10T01:44:19.724Z,49.86
2023-05-10T01:46:53.075Z,49.33
2023-05-10T01:49:26.239Z,50.22
2023-05-10T01:51:56.882Z,50.25
2023-05-10T01:54:26.020Z,50.06
2023-05-10T01:57:01.713Z,48.72
2023-05-10T01:59:33.062Z,49.20
2023-05-10T02:02:01.830Z,48.79
2023-05-10T02:04:34.010Z,49.08
2023-05-10T02:07:03.044Z,48.52
2023-05-10T02:09:32.498Z,48.38
2023-05-10T02:12:03.577Z,48.99
2023-05-10T02:14:35.234Z,48.16
2023-05-10T02:17:05.162Z,47.58
2023-05-10T02:19:36.045Z,47.96
2023-05-10T02:22:24.994Z,47.76
2023-05-10T02:25:01.989Z,46.93
2023-05-10T02:27:34.194Z,46.25
2023-05-10T02:30:03.270Z,47.15
2023-05-10T02:32:34.819Z,47.39
2023-05-10T02:35:05.753Z,48.36
2023-05-10T02:37:37.094Z,47.35
2023-05-10T02:40:07.605Z,46.07
2023-05-10T02:42:38.511Z,46.50
2023-05-10T02:45:10.886Z,47.65
2023-05-10T02:47:39.809Z,47.29
2023-05-10T02:50:10.644Z,47.07
2023-05-10T02:52:42.789Z,47.88
2023-05-10T02:55:13.958Z,48.07
2023-05-10T02:57:44.589Z,47.56
2023-05-10T03:00:16.622Z,47.73
2023-05-10T03:02:45.386Z,48.05
2023-05-10T03:05:15.155Z,48.52
2023-05-10T03:07:43.771Z,48.11
2023-05-10T03:10:12.515Z,48.17
2023-05-10T03:12:59.654Z,48.53
2023-05-10T03:15:37.668Z,48.31
2023-05-10T03:18:10.123Z,48.33
2023-05-10T03:20:44.407Z,48.60
2023-05-10T03:23:18.244Z,48.78
2023-05-10T03:25:49.570Z,48.43
2023-05-10T03:28:19.333Z,48.15
2023-05-10T03:30:48.628Z,48.37
2023-05-10T03:33:17.980Z,48.20
2023-05-10T03:35:49.709Z,47.98
2023-05-10T03:38:18.362Z,47.88
2023-05-10T03:40:47.971Z,48.17
2023-05-10T03:43:16.569Z,48.53
2023-05-10T03:45:44.954Z,49.12
2023-05-10T03:48:17.398Z,48.84
2023-05-10T03:50:45.769Z,48.60
2023-05-10T03:53:16.004Z,47.38
2023-05-10T03:55:44.390Z,46.54
2023-05-10T03:58:13.705Z,46.51
2023-05-10T04:00:44.999Z,47.24
2023-05-10T04:03:17.018Z,47.61
2023-05-10T04:05:45.483Z,47.15
2023-05-10T04:08:15.856Z,47.81
2023-05-10T04:10:46.389Z,47.79
2023-05-10T04:13:14.993Z,47.53
2023-05-10T04:15:44.240Z,47.26
2023-05-10T04:18:12.739Z,45.67
2023-05-10T04:20:41.212Z,45.28
2023-05-10T04:23:10.892Z,46.47
2023-05-10T04:25:40.762Z,46.25
2023-05-10T04:28:09.190Z,46.25
2023-05-10T04:30:37.726Z,46.09
2023-05-10T04:33:06.297Z,45.64
2023-05-10T04:35:35.195Z,45.88
2023-05-10T04:38:03.720Z,45.81
2023-05-10T04:40:32.322Z,45.82
2023-05-10T04:43:02.031Z,45.77
2023-05-10T04:45:30.464Z,45.65
2023-05-10T04:47:59.283Z,45.54
2023-05-10T04:50:27.676Z,45.82
2023-05-10T04:52:56.234Z,45.02
2023-05-10T04:55:24.758Z,44.92
2023-05-10T04:57:53.160Z,44.44
2023-05-10T05:00:23.567Z,44.33
2023-05-10T05:02:55.045Z,44.11
2023-05-10T05:05:23.858Z,43.60
2023-05-10T05:07:52.147Z,43.39
2023-05-10T05:10:20.726Z,43.02
2023-05-10T05:12:49.297Z,42.75
2023-05-10T05:15:18.070Z,42.18
2023-05-10T05:17:48.140Z,41.23
2023-05-10T05:20:17.050Z,40.26
2023-05-10T05:22:45.783Z,40.38
2023-05-10T05:25:14.508Z,40.95
2023-05-10T05:27:42.937Z,40.16
2023-05-10T05:30:12.462Z,39.60
2023-05-10T05:32:41.007Z,39.63
2023-05-10T05:35:11.284Z,40.33
2023-05-10T05:37:42.944Z,39.71
2023-05-10T05:40:14.945Z,40.29
2023-05-10T05:42:43.596Z,39.15
2023-05-10T05:45:14.374Z,38.49
2023-05-10T05:47:43.114Z,38.12
2023-05-10T05:50:16.398Z,37.58
2023-05-10T05:52:47.905Z,37.45
2023-05-10T05:55:17.011Z,37.58
2023-05-10T05:57:45.781Z,37.15
2023-05-10T06:00:15.571Z,36.84
2023-05-10T06:02:44.076Z,36.69
2023-05-10T06:05:15.350Z,36.76
2023-05-10T06:07:44.201Z,36.34
2023-05-10T06:10:15.436Z,35.78
2023-05-10T06:12:43.855Z,35.94
2023-05-10T06:15:12.966Z,35.45
2023-05-10T06:17:41.929Z,35.20
2023-05-10T06:20:11.397Z,35.19
2023-05-10T06:22:41.130Z,35.31
2023-05-10T06:25:16.051Z,35.00
2023-05-10T06:27:48.052Z,34.38
2023-05-10T06:30:18.478Z,34.45
2023-05-10T06:32:47.358Z,34.76
2023-05-10T06:35:16.283Z,34.22
2023-05-10T06:37:47.874Z,33.46
2023-05-10T06:40:16.996Z,33.54
2023-05-10T06:42:45.987Z,33.32
2023-05-10T06:45:15.702Z,32.96
2023-05-10T06:47:44.622Z,32.85
2023-05-10T06:50:13.696Z,32.29
2023-05-10T06:52:42.443Z,32.54
2023-05-10T06:55:12.801Z,32.92
2023-05-10T06:57:41.233Z,32.53
2023-05-10T07:00:11.556Z,32.55
2023-05-10T07:02:40.071Z,31.82
2023-05-10T07:05:09.760Z,32.43
2023-05-10T07:07:38.213Z,32.17
2023-05-10T07:10:08.125Z,32.66
2023-05-10T07:12:37.933Z,32.24
2023-05-10T07:15:07.551Z,32.59
2023-05-10T07:17:36.117Z,32.27
2023-05-10T07:20:05.035Z,32.20
2023-05-10T07:22:33.986Z,31.75
2023-05-10T07:25:02.463Z,31.32
2023-05-10T07:27:33.591Z,30.90
2023-05-10T07:30:03.797Z,31.28
2023-05-10T07:32:36.099Z,31.59
2023-05-10T07:35:06.043Z,31.63
2023-05-10T07:37:37.527Z,31.30
2023-05-10T07:40:07.469Z,30.27
2023-05-10T07:42:35.921Z,30.15
2023-05-10T07:45:06.560Z,30.10
2023-05-10T07:47:36.245Z,29.86
2023-05-10T07:50:05.239Z,29.88
2023-05-10T07:52:33.953Z,29.98
2023-05-10T07:55:02.641Z,29.65
2023-05-10T07:57:32.950Z,29.21
2023-05-10T08:00:01.449Z,29.84
2023-05-10T08:02:35.307Z,29.65
2023-05-10T08:05:04.084Z,29.75
2023-05-10T08:07:32.447Z,29.34
2023-05-10T08:10:02.781Z,29.66
2023-05-10T08:12:35.711Z,28.53
2023-05-10T08:15:05.017Z,28.26
2023-05-10T08:17:36.127Z,28.66
2023-05-10T08:20:04.970Z,28.56
2023-05-10T08:22:33.769Z,27.95
2023-05-10T08:25:02.348Z,28.99
2023-05-10T08:27:32.823Z,28.97
2023-05-10T08:30:01.746Z,29.07
2023-05-10T08:32:38.983Z,28.60
2023-05-10T08:35:08.108Z,27.71
2023-05-10T08:37:36.824Z,28.06
2023-05-10T08:40:05.857Z,27.73
2023-05-10T08:42:37.704Z,27.26
2023-05-10T08:45:07.688Z,27.64
2023-05-10T08:47:39.154Z,26.15
2023-05-10T08:50:09.342Z,25.37
2023-05-10T08:52:41.179Z,26.53
2023-05-10T08:55:10.189Z,25.82
2023-05-10T08:57:38.928Z,25.67
2023-05-10T09:00:09.339Z,25.65
2023-05-10T09:02:39.819Z,26.06
2023-05-10T09:05:12.001Z,25.60
2023-05-10T09:07:40.468Z,25.65
2023-05-10T09:10:10.507Z,24.81
2023-05-10T09:12:41.947Z,24.77
2023-05-10T09:15:11.866Z,24.99
2023-05-10T09:17:51.068Z,24.86
2023-05-10T09:20:19.724Z,24.31
2023-05-10T09:22:49.402Z,23.82
2023-05-10T09:25:18.838Z,23.71
2023-05-10T09:27:49.400Z,23.73
2023-05-10T09:30:19.197Z,22.62
2023-05-10T09:32:52.651Z,23.42
2023-05-10T09:35:23.270Z,22.87
2023-05-10T09:37:53.103Z,23.51
2023-05-10T09:40:22.639Z,23.47
2023-05-10T09:42:55.540Z,24.61
2023-05-10T09:45:25.379Z,24.36
2023-05-10T09:47:58.335Z,23.88
2023-05-10T09:50:27.856Z,24.33
2023-05-10T09:52:59.384Z,24.08
2023-05-10T09:55:40.956Z,24.44
2023-05-10T09:58:11.735Z,23.97
2023-05-10T10:00:42.858Z,23.84
2023-05-10T10:03:16.882Z,23.82
2023-05-10T10:05:46.484Z,23.65
2023-05-10T10:08:15.725Z,23.83
2023-05-10T10:10:51.560Z,24.05
2023-05-10T10:13:20.276Z,24.05
2023-05-10T10:15:52.233Z,24.92
2023-05-10T10:18:28.073Z,25.05
2023-05-10T10:20:57.636Z,25.40
2023-05-10T10:23:26.192Z,25.26
2023-05-10T10:25:56.385Z,25.44
2023-05-10T10:28:29.719Z,25.51
2023-05-10T10:31:03.754Z,25.17
2023-05-10T10:33:58.265Z,25.40
2023-05-10T10:36:30.643Z,25.05
2023-05-10T10:39:04.097Z,24.87
2023-05-10T10:41:34.598Z,24.76
2023-05-10T10:44:43.175Z,25.21
2023-05-10T10:47:25.877Z,26.00
2023-05-10T10:50:06.248Z,25.62
2023-05-10T10:52:36.395Z,25.88
2023-05-10T10:55:07.822Z,25.40
2023-05-10T10:57:49.711Z,25.44
2023-05-10T11:00:23.659Z,25.48
2023-05-10T11:02:56.541Z,25.27
2023-05-10T11:05:47.554Z,24.88
2023-05-10T11:08:18.790Z,25.38
2023-05-10T11:10:55.276Z,24.58
2023-05-10T11:13:35.848Z,24.74
2023-05-10T11:16:19.004Z,23.99
2023-05-10T11:19:02.703Z,24.15
2023-05-10T11:21:33.905Z,24.31
2023-05-10T11:24:07.008Z,24.41
2023-05-10T11:26:37.383Z,24.43
2023-05-10T11:29:06.196Z,24.37
2023-05-10T11:31:35.190Z,24.57
2023-05-10T11:34:03.957Z,24.19
2023-05-10T11:36:36.845Z,24.58
2023-05-10T11:39:06.391Z,24.65
2023-05-10T11:41:35.323Z,24.38
2023-05-10T11:44:04.197Z,24.17
2023-05-10T11:46:32.730Z,23.98
2023-05-10T11:49:05.177Z,24.01
2023-05-10T11:51:38.349Z,24.49
2023-05-10T11:54:11.260Z,24.72
2023-05-10T11:56:40.404Z,24.37
2023-05-10T11:59:09.441Z,24.68
2023-05-10T12:01:38.664Z,24.41
2023-05-10T12:04:07.427Z,24.85
2023-05-10T12:06:44.346Z,24.95
2023-05-10T12:09:12.777Z,24.62
2023-05-10T12:11:44.225Z,25.30
2023-05-10T12:14:13.578Z,24.62
2023-05-10T12:16:42.554Z,25.02
2023-05-10T12:19:12.192Z,25.60
2023-05-10T12:21:47.421Z,25.60
2023-05-10T12:24:18.822Z,25.13
2023-05-10T12:26:49.484Z,25.36
2023-05-10T12:29:20.213Z,25.89
2023-05-10T12:31:53.436Z,25.44
2023-05-10T12:34:33.856Z,26.19
2023-05-10T12:37:06.703Z,26.01
2023-05-10T12:39:42.353Z,25.77
2023-05-10T12:42:13.743Z,26.18
2023-05-10T12:44:42.451Z,26.08
2023-05-10T12:47:11.825Z,25.93
2023-05-10T12:49:40.685Z,25.64
2023-05-10T12:52:14.689Z,25.44
2023-05-10T12:54:43.780Z,25.93
2023-05-10T12:57:12.920Z,25.91
2023-05-10T12:59:41.593Z,26.09
2023-05-10T13:02:11.100Z,26.10
2023-05-10T13:04:40.838Z,25.36
2023-05-10T13:07:09.525Z,24.97
2023-05-10T13:09:39.481Z,25.29
2023-05-10T13:12:09.993Z,25.07
2023-05-10T13:14:38.914Z,25.63
2023-05-10T13:17:07.346Z,25.81
2023-05-10T13:19:35.861Z,25.98
2023-05-10T13:22:04.944Z,26.10
2023-05-10T13:24:33.472Z,25.46
2023-05-10T13:27:03.446Z,25.86
2023-05-10T13:29:31.810Z,26.18
2023-05-10T13:32:01.424Z,26.30
2023-05-10T13:34:30.515Z,26.45
2023-05-10T13:36:58.853Z,26.44
2023-05-10T13:39:27.357Z,26.03
2023-05-10T13:41:55.915Z,26.18
2023-05-10T13:44:25.735Z,25.76
2023-05-10T13:46:54.549Z,25.67
2023-05-10T13:49:23.662Z,26.05
2023-05-10T13:51:52.008Z,25.79
2023-05-10T13:54:21.028Z,26.22
2023-05-10T13:56:49.755Z,25.92
2023-05-10T13:59:18.899Z,26.33
2023-05-10T14:01:51.365Z,26.18
2023-05-10T14:04:20.900Z,26.70
2023-05-10T14:06:49.933Z,26.43
2023-05-10T14:09:19.589Z,26.41
2023-05-10T14:11:48.685Z,26.19
2023-05-10T14:14:17.398Z,26.20
2023-05-10T14:16:50.887Z,25.75
2023-05-10T14:19:20.172Z,26.10
2023-05-10T14:21:50.973Z,26.11
2023-05-10T14:24:19.582Z,26.21
2023-05-10T14:26:48.212Z,26.63
2023-05-10T14:29:19.383Z,26.31
2023-05-10T14:31:49.396Z,27.20
2023-05-10T14:34:17.835Z,27.46
2023-05-10T14:36:46.513Z,27.47
2023-05-10T14:39:14.955Z,27.16
2023-05-10T14:41:45.642Z,27.59
2023-05-10T14:44:14.210Z,27.75
2023-05-10T14:46:43.001Z,27.89
2023-05-10T14:49:12.906Z,27.97
2023-05-10T14:51:41.414Z,27.79
2023-05-10T14:54:10.214Z,27.84
2023-05-10T14:56:39.958Z,28.39
2023-05-10T14:59:08.829Z,28.15
2023-05-10T15:01:39.120Z,28.60
2023-05-10T15:04:09.163Z,28.27
2023-05-10T15:06:40.781Z,28.79
2023-05-10T15:09:10.113Z,28.59
2023-05-10T15:11:38.998Z,28.76
2023-05-10T15:14:08.075Z,29.21
2023-05-10T15:16:36.885Z,29.10
2023-05-10T15:19:08.572Z,29.10
2023-05-10T15:21:40.099Z,29.09
2023-05-10T15:24:10.870Z,28.40
2023-05-10T15:26:39.500Z,28.40
2023-05-10T15:29:08.057Z,28.53
2023-05-10T15:31:37.086Z,28.29
2023-05-10T15:34:05.711Z,28.90
2023-05-10T15:36:34.211Z,28.82
2023-05-10T15:39:02.858Z,28.45
2023-05-10T15:41:32.737Z,28.87
2023-05-10T15:44:01.813Z,28.86
2023-05-10T15:46:31.210Z,28.99
2023-05-10T15:48:59.880Z,29.28
2023-05-10T15:51:28.423Z,29.26
2023-05-10T15:54:06.651Z,29.03
2023-05-10T15:56:38.336Z,29.38
2023-05-10T15:59:08.678Z,29.05
2023-05-10T16:01:37.468Z,31.20
2023-05-10T16:04:06.075Z,30.74
2023-05-10T16:06:34.671Z,30.62
2023-05-10T16:09:02.980Z,29.76
2023-05-10T16:11:31.633Z,30.18
2023-05-10T16:14:01.619Z,31.05
2023-05-10T16:16:30.338Z,31.39
2023-05-10T16:19:01.324Z,30.28
2023-05-10T16:21:33.533Z,30.75
2023-05-10T16:24:02.496Z,30.64
2023-05-10T16:26:30.889Z,30.59
2023-05-10T16:28:59.251Z,30.53
2023-05-10T16:31:29.181Z,29.90
2023-05-10T16:33:58.183Z,30.14
2023-05-10T16:36:26.863Z,30.28
2023-05-10T16:38:55.680Z,31.15
2023-05-10T16:41:24.009Z,31.32
2023-05-10T16:43:52.524Z,31.18
2023-05-10T16:46:21.090Z,30.98
2023-05-10T16:48:51.098Z,30.84
2023-05-10T16:51:19.539Z,31.23
2023-05-10T16:53:48.082Z,31.25
2023-05-10T16:56:17.811Z,30.86
2023-05-10T16:58:46.546Z,31.18
2023-05-10T17:01:15.370Z,31.19
2023-05-10T17:03:43.984Z,30.79
2023-05-10T17:06:14.265Z,30.94
2023-05-10T17:08:42.876Z,30.79
2023-05-10T17:11:11.396Z,31.08
2023-05-10T17:13:40.106Z,31.04
2023-05-10T17:16:08.831Z,31.19
2023-05-10T17:18:37.401Z,31.30
2023-05-10T17:21:07.210Z,31.12
2023-05-10T17:23:37.476Z,31.55
2023-05-10T17:26:06.439Z,33.54
2023-05-10T17:28:35.946Z,35.77
2023-05-10T17:31:04.480Z,36.66
2023-05-10T17:33:33.102Z,36.84
2023-05-10T17:36:01.825Z,37.17
2023-05-10T17:38:30.614Z,37.92
2023-05-10T17:41:00.757Z,34.16
2023-05-10T17:43:29.300Z,33.50
2023-05-10T17:45:57.873Z,36.05
2023-05-10T17:48:26.768Z,36.80
2023-05-10T17:50:57.755Z,35.21
2023-05-10T17:53:26.641Z,33.64
2023-05-10T17:55:59.074Z,35.56
2023-05-10T17:58:30.431Z,35.61
2023-05-10T18:00:58.952Z,33.60
2023-05-10T18:03:28.711Z,34.68
2023-05-10T18:05:58.688Z,39.03
2023-05-10T18:08:28.822Z,37.46
2023-05-10T18:10:57.427Z,37.25
2023-05-10T18:13:25.948Z,37.27
2023-05-10T18:15:56.229Z,38.59
2023-05-10T18:18:25.393Z,37.84
2023-05-10T18:20:56.980Z,36.67
2023-05-10T18:23:25.697Z,35.95
2023-05-10T18:25:54.668Z,39.13
2023-05-10T18:28:24.654Z,40.48
2023-05-10T18:30:53.228Z,42.24
2023-05-10T18:33:23.208Z,42.63
2023-05-10T18:35:52.515Z,43.43
2023-05-10T18:38:21.119Z,43.59
2023-05-10T18:40:49.625Z,43.95
2023-05-10T18:43:18.246Z,44.45
2023-05-10T18:45:46.773Z,45.35
2023-05-10T18:48:15.104Z,45.40
2023-05-10T18:50:45.246Z,43.50
2023-05-10T18:53:14.165Z,42.66
2023-05-10T18:55:42.590Z,44.48
2023-05-10T18:58:14.254Z,44.10
2023-05-10T19:00:43.454Z,44.80
2023-05-10T19:03:12.076Z,45.14
2023-05-10T19:05:40.653Z,45.78
2023-05-10T19:08:10.399Z,45.56
2023-05-10T19:10:38.947Z,45.95
2023-05-10T19:13:07.300Z,45.29
2023-05-10T19:15:36.290Z,46.13
2023-05-10T19:18:05.533Z,47.41
2023-05-10T19:20:38.522Z,47.99
2023-05-10T19:23:10.161Z,49.04
2023-05-10T19:25:42.570Z,43.45
2023-05-10T19:28:11.458Z,41.54
2023-05-10T19:30:39.843Z,40.41
2023-05-10T19:33:12.826Z,40.11
2023-05-10T19:35:41.358Z,38.49
2023-05-10T19:38:09.804Z,36.97
2023-05-10T19:40:38.574Z,43.69
2023-05-10T19:43:08.331Z,40.11
2023-05-10T19:45:38.930Z,39.38
2023-05-10T19:48:08.039Z,39.34
2023-05-10T19:50:36.535Z,38.06
2023-05-10T19:53:05.098Z,37.76
2023-05-10T19:55:37.207Z,41.02
2023-05-10T19:58:06.595Z,42.25
2023-05-10T20:00:39.754Z,44.13
2023-05-10T20:03:09.384Z,42.13
2023-05-10T20:05:38.067Z,40.88
2023-05-10T20:08:06.708Z,42.10
2023-05-10T20:10:35.045Z,41.31
2023-05-10T20:13:03.727Z,42.83
2023-05-10T20:15:32.645Z,43.09
2023-05-10T20:18:03.896Z,44.54
2023-05-10T20:20:32.841Z,44.90
2023-05-10T20:23:01.424Z,48.12
2023-05-10T20:25:30.085Z,47.94
2023-05-10T20:27:58.893Z,46.71
2023-05-10T20:30:29.146Z,48.13
2023-05-10T20:32:57.489Z,48.67
2023-05-10T20:35:27.331Z,45.79
2023-05-10T20:37:55.998Z,48.68
2023-05-10T20:40:25.008Z,49.46
2023-05-10T20:42:54.168Z,50.89
2023-05-10T20:45:23.019Z,51.84
2023-05-10T20:47:51.473Z,50.06
2023-05-10T20:50:20.282Z,51.37
2023-05-10T20:52:52.452Z,47.62
2023-05-10T20:55:21.620Z,48.97
2023-05-10T20:57:51.519Z,45.54
2023-05-10T21:00:20.676Z,44.88
2023-05-10T21:02:52.291Z,44.99
2023-05-10T21:05:20.945Z,44.73
2023-05-10T21:07:54.230Z,45.51
2023-05-10T21:10:22.871Z,48.59
2023-05-10T21:12:51.548Z,50.12
2023-05-10T21:15:20.336Z,51.32
2023-05-10T21:17:48.815Z,49.62
2023-05-10T21:20:17.760Z,47.66
2023-05-10T21:22:46.257Z,42.16
2023-05-10T21:25:19.026Z,41.80
2023-05-10T21:27:52.569Z,43.34
2023-05-10T21:30:21.261Z,41.48
2023-05-10T21:32:49.901Z,43.05
2023-05-10T21:35:18.953Z,43.67
2023-05-10T21:37:47.279Z,43.89
2023-05-10T21:40:16.277Z,43.08
2023-05-10T21:42:49.425Z,42.23
2023-05-10T21:45:18.397Z,42.43
2023-05-10T21:47:48.363Z,41.64
2023-05-10T21:50:19.505Z,42.16
2023-05-10T21:52:51.497Z,42.62
2023-05-10T21:55:20.584Z,41.94
2023-05-10T21:57:51.796Z,41.74
2023-05-10T22:00:21.055Z,41.86
2023-05-10T22:02:49.717Z,41.44
2023-05-10T22:05:21.249Z,41.83
2023-05-10T22:07:50.025Z,42.17
2023-05-10T22:10:21.099Z,43.33
2023-05-10T22:12:51.704Z,45.80
2023-05-10T22:15:20.317Z,48.60
2023-05-10T22:17:49.149Z,49.06
2023-05-10T22:20:17.730Z,51.01
2023-05-10T22:22:46.468Z,51.83
2023-05-10T22:25:15.055Z,50.90
2023-05-10T22:27:43.486Z,50.62
2023-05-10T22:30:13.689Z,54.83
2023-05-10T22:32:42.247Z,53.37
2023-05-10T22:35:11.144Z,48.70
2023-05-10T22:37:39.799Z,49.39
2023-05-10T22:40:09.671Z,50.66
2023-05-10T22:42:38.072Z,50.54
2023-05-10T22:45:07.357Z,50.41
2023-05-10T22:47:37.548Z,49.04
2023-05-10T22:50:07.036Z,49.90
2023-05-10T22:52:35.744Z,51.19
2023-05-10T22:55:04.139Z,48.84
2023-05-10T22:57:33.650Z,51.24
2023-05-10T23:00:02.164Z,48.40
2023-05-10T23:02:34.653Z,49.54
2023-05-10T23:05:05.588Z,49.99
2023-05-10T23:07:34.301Z,49.81
2023-05-10T23:10:02.812Z,50.98
2023-05-10T23:12:33.992Z,49.77
2023-05-10T23:15:02.681Z,46.92
2023-05-10T23:17:34.458Z,46.92
2023-05-10T23:20:04.609Z,48.79
2023-05-10T23:22:33.253Z,50.02
2023-05-10T23:25:02.390Z,49.85
2023-05-10T23:27:33.126Z,50.85
2023-05-10T23:30:02.044Z,54.42
2023-05-10T23:32:33.905Z,53.29
2023-05-10T23:35:05.492Z,52.28
2023-05-10T23:37:36.269Z,52.67
2023-05-10T23:40:05.069Z,52.97
2023-05-10T23:42:34.112Z,53.11
2023-05-10T23:45:03.300Z,53.53
2023-05-10T23:47:34.125Z,51.01
2023-05-10T23:50:03.070Z,53.99
2023-05-10T23:52:32.366Z,51.93
2023-05-10T23:55:02.412Z,51.38
2023-05-10T23:57:33.726Z,54.15
